Time;durP1;ratioP1;P1;durP2;ratioP2;P2;SDS_P1;SDS_P2;PMS_P1;PMS_P2;Temp;Humidity;BMP_temperature;BMP_pressure;BME280_temperature;BME280_humidity;BME280_pressure;Samples;Min_cycle;Max_cycle;Signal;HPM_P1;HPM_P2
2023/04/28 00:01:11;;;;;;;2.63;2.43;;;14.70;52.80;;;;;;931232;148;27392;-76
2023/04/28 00:03:38;;;;;;;3.23;2.17;;;14.70;52.80;;;;;;938774;149;27288;-76
2023/04/28 00:06:05;;;;;;;2.63;2.23;;;14.70;52.80;;;;;;954663;146;27491;-76
2023/04/28 00:08:31;;;;;;;3.27;2.55;;;14.70;52.80;;;;;;936496;149;27378;-75
2023/04/28 00:10:58;;;;;;;2.53;2.20;;;14.70;52.90;;;;;;952987;146;27312;-76
2023/04/28 00:13:25;;;;;;;3.23;2.27;;;14.70;52.90;;;;;;953166;146;27291;-76
2023/04/28 00:15:53;;;;;;;3.77;2.50;;;14.70;52.80;;;;;;950129;148;27312;-76
2023/04/28 00:18:20;;;;;;;2.30;2.20;;;14.80;52.80;;;;;;934470;149;27900;-76
2023/04/28 00:20:47;;;;;;;2.97;2.30;;;14.70;52.80;;;;;;937649;149;27427;-76
2023/04/28 00:23:13;;;;;;;2.67;2.17;;;14.70;52.80;;;;;;937420;149;27345;-76
2023/04/28 00:25:40;;;;;;;3.93;2.23;;;14.80;52.80;;;;;;949386;148;27360;-76
2023/04/28 00:28:06;;;;;;;1.83;1.73;;;14.80;52.90;;;;;;953478;146;27503;-76
2023/04/28 00:30:33;;;;;;;2.15;1.95;;;14.80;52.80;;;;;;953165;146;27407;-76
2023/04/28 00:33:00;;;;;;;3.17;1.97;;;14.80;52.80;;;;;;954119;146;27775;-76
2023/04/28 00:35:26;;;;;;;2.33;2.07;;;14.80;52.80;;;;;;953225;146;27320;-76
2023/04/28 00:37:53;;;;;;;2.30;2.07;;;14.80;52.80;;;;;;949213;148;27379;-76
2023/04/28 00:40:19;;;;;;;2.67;2.03;;;14.80;52.80;;;;;;948286;148;27341;-76
2023/04/28 00:42:46;;;;;;;3.50;2.40;;;14.80;52.80;;;;;;948065;148;27345;-76
2023/04/28 00:45:13;;;;;;;2.92;2.20;;;14.80;52.80;;;;;;948320;148;27325;-75
2023/04/28 00:47:39;;;;;;;3.60;2.63;;;14.70;52.80;;;;;;947509;148;27478;-76
2023/04/28 00:50:06;;;;;;;2.33;2.13;;;14.70;52.80;;;;;;947709;148;27278;-76
2023/04/28 00:52:32;;;;;;;2.87;2.30;;;14.70;52.90;;;;;;958737;146;27285;-76
2023/04/28 00:54:59;;;;;;;2.50;2.30;;;14.70;52.90;;;;;;962742;146;27455;-76
2023/04/28 00:57:26;;;;;;;2.30;2.10;;;14.70;53.00;;;;;;961833;146;27426;-76
2023/04/28 00:59:52;;;;;;;3.27;2.42;;;14.60;53.00;;;;;;954806;146;27367;-76
2023/04/28 01:02:19;;;;;;;2.30;2.10;;;14.60;53.00;;;;;;944971;149;27335;-75
2023/04/28 01:04:45;;;;;;;3.03;2.30;;;14.60;53.10;;;;;;948086;149;27315;-76
2023/04/28 01:07:12;;;;;;;4.07;2.37;;;14.60;53.20;;;;;;931171;153;27382;-76
2023/04/28 01:09:38;;;;;;;2.57;2.33;;;14.60;53.20;;;;;;938994;149;27411;-76
2023/04/28 01:12:05;;;;;;;2.47;2.10;;;14.50;53.20;;;;;;943718;149;27388;-76
2023/04/28 01:14:32;;;;;;;2.93;2.23;;;14.50;53.30;;;;;;941431;149;27306;-76
2023/04/28 01:16:58;;;;;;;3.03;2.13;;;14.50;53.40;;;;;;941384;149;27269;-76
2023/04/28 01:19:26;;;;;;;3.10;2.47;;;14.60;53.50;;;;;;941293;149;27385;-76
2023/04/28 01:21:51;;;;;;;3.83;2.20;;;14.50;53.50;;;;;;943799;148;27353;-76
2023/04/28 01:24:18;;;;;;;2.27;2.07;;;14.50;53.60;;;;;;943681;148;27375;-75
2023/04/28 01:26:45;;;;;;;3.20;2.37;;;14.50;53.60;;;;;;943648;148;27296;-76
2023/04/28 01:29:11;;;;;;;2.53;2.33;;;14.50;53.10;;;;;;948020;147;27432;-76
2023/04/28 01:31:38;;;;;;;2.73;2.23;;;14.50;53.70;;;;;;947440;147;27427;-76
2023/04/28 01:34:04;;;;;;;5.80;2.37;;;14.50;53.70;;;;;;927296;152;27310;-75
2023/04/28 01:36:32;;;;;;;2.47;2.27;;;14.50;53.70;;;;;;942926;149;27321;-76
2023/04/28 01:38:57;;;;;;;2.57;2.30;;;14.50;53.70;;;;;;943513;148;27329;-76
2023/04/28 01:41:24;;;;;;;3.73;2.50;;;14.50;53.80;;;;;;944576;148;27771;-76
2023/04/28 01:43:51;;;;;;;3.07;2.57;;;14.50;53.80;;;;;;943200;148;27270;-75
2023/04/28 01:46:17;;;;;;;2.90;2.70;;;14.50;53.80;;;;;;949532;147;27416;-75
2023/04/28 01:48:44;;;;;;;2.47;2.27;;;14.60;53.80;;;;;;949119;147;27315;-76
2023/04/28 01:51:10;;;;;;;2.50;2.30;;;14.50;53.70;;;;;;950095;147;27428;-75
2023/04/28 01:53:37;;;;;;;3.77;2.57;;;14.50;53.80;;;;;;948507;147;27347;-75
2023/04/28 01:56:04;;;;;;;3.03;2.23;;;14.50;53.80;;;;;;938111;150;27267;-75
2023/04/28 01:58:30;;;;;;;3.30;2.47;;;14.50;53.80;;;;;;938941;150;27368;-76
2023/04/28 02:00:57;;;;;;;2.50;2.00;;;14.50;53.80;;;;;;938240;150;27346;-76
2023/04/28 02:03:23;;;;;;;2.90;2.37;;;14.60;53.80;;;;;;934920;149;27353;-76
2023/04/28 02:05:50;;;;;;;4.47;2.50;;;14.60;53.80;;;;;;942867;148;27313;-75
2023/04/28 02:08:17;;;;;;;4.97;2.67;;;14.60;53.90;;;;;;920619;149;27427;-75
2023/04/28 02:10:44;;;;;;;3.27;2.33;;;14.60;53.90;;;;;;921599;150;27412;-76
2023/04/28 02:13:10;;;;;;;3.07;2.03;;;14.60;53.90;;;;;;926614;150;27342;-75
2023/04/28 02:15:42;;;;;;;4.10;2.30;;;14.60;53.80;;;;;;937304;148;27353;-76
2023/04/28 02:18:11;;;;;;;2.37;2.10;;;14.60;53.80;;;;;;937277;148;27342;-76
2023/04/28 02:20:38;;;;;;;3.03;2.30;;;14.70;53.90;;;;;;937297;148;27479;-76
2023/04/28 02:23:04;;;;;;;3.70;2.40;;;14.70;54.00;;;;;;933639;149;27365;-76
2023/04/28 02:25:31;;;;;;;2.70;2.23;;;14.70;54.10;;;;;;938222;150;27338;-76
2023/04/28 02:27:58;;;;;;;2.83;2.23;;;14.70;54.50;;;;;;935917;149;27396;-76
2023/04/28 02:30:24;;;;;;;2.80;2.40;;;14.80;54.40;;;;;;938072;148;27452;-76
2023/04/28 02:32:51;;;;;;;2.77;2.10;;;14.80;54.70;;;;;;937687;148;27458;-76
2023/04/28 02:35:17;;;;;;;7.40;3.60;;;14.80;54.90;;;;;;936561;148;27317;-76
2023/04/28 02:37:44;;;;;;;3.40;2.20;;;14.80;55.00;;;;;;939099;150;27315;-76
2023/04/28 02:40:10;;;;;;;3.62;2.33;;;14.80;55.20;;;;;;935734;149;27338;-75
2023/04/28 02:42:37;;;;;;;4.15;2.27;;;14.80;55.40;;;;;;938260;148;27358;-76
2023/04/28 02:45:04;;;;;;;3.30;2.50;;;14.80;55.50;;;;;;947497;147;27472;-75
2023/04/28 02:47:30;;;;;;;3.07;2.57;;;14.80;55.80;;;;;;939657;147;27441;-76
2023/04/28 02:49:57;;;;;;;4.10;2.47;;;14.70;55.90;;;;;;924369;150;27453;-76
2023/04/28 02:52:23;;;;;;;4.03;2.47;;;14.70;56.00;;;;;;936582;148;27310;-76
2023/04/28 02:54:53;;;;;;;3.53;2.23;;;14.70;56.20;;;;;;926977;150;27448;-76
2023/04/28 02:57:17;;;;;;;3.03;2.20;;;14.70;56.20;;;;;;934664;149;27302;-76
2023/04/28 02:59:43;;;;;;;2.77;2.50;;;14.70;56.30;;;;;;936181;149;27822;-75
2023/04/28 03:02:11;;;;;;;3.93;3.20;;;14.70;56.30;;;;;;947837;148;27364;-76
2023/04/28 03:04:36;;;;;;;6.30;4.97;;;14.60;56.20;;;;;;950650;148;27363;-76
2023/04/28 03:07:03;;;;;;;12.03;7.03;;;14.60;56.30;;;;;;947758;148;27345;-76
2023/04/28 03:09:30;;;;;;;7.73;6.00;;;14.60;56.40;;;;;;924505;152;27478;-76
2023/04/28 03:11:56;;;;;;;8.27;5.03;;;14.60;56.50;;;;;;944253;148;27378;-76
2023/04/28 03:14:23;;;;;;;5.93;4.70;;;14.50;56.60;;;;;;943543;148;27328;-76
2023/04/28 03:16:49;;;;;;;5.03;4.35;;;14.50;56.80;;;;;;944643;147;27441;-76
2023/04/28 03:19:16;;;;;;;8.00;3.93;;;14.50;57.00;;;;;;943324;148;27317;-75
2023/04/28 03:21:42;;;;;;;3.70;3.40;;;14.50;57.10;;;;;;939890;150;27330;-76
2023/04/28 03:24:09;;;;;;;4.67;3.63;;;14.40;57.30;;;;;;939829;150;27417;-76
2023/04/28 03:26:36;;;;;;;4.95;3.25;;;14.40;57.40;;;;;;943974;148;27458;-76
2023/04/28 03:29:02;;;;;;;3.27;3.00;;;14.30;57.50;;;;;;943877;148;27480;-76
2023/04/28 03:31:29;;;;;;;5.40;3.13;;;14.30;57.60;;;;;;945192;147;27303;-76
2023/04/28 03:33:56;;;;;;;3.90;2.83;;;14.20;57.60;;;;;;934502;150;27287;-76
2023/04/28 03:36:22;;;;;;;4.30;2.87;;;14.10;57.60;;;;;;933521;149;27495;-76
2023/04/28 03:38:49;;;;;;;4.40;2.47;;;14.10;57.80;;;;;;947688;147;27360;-76
2023/04/28 03:41:15;;;;;;;5.17;2.87;;;14.10;57.90;;;;;;943392;148;27314;-75
2023/04/28 03:43:42;;;;;;;3.50;3.17;;;14.00;57.90;;;;;;943434;148;27414;-75
2023/04/28 03:46:08;;;;;;;5.10;2.50;;;14.00;58.20;;;;;;943996;148;27399;-75
2023/04/28 03:48:35;;;;;;;4.80;3.07;;;14.00;58.50;;;;;;944550;148;27440;-75
2023/04/28 03:51:02;;;;;;;3.07;2.77;;;13.90;58.60;;;;;;919650;151;27433;-76
2023/04/28 03:53:28;;;;;;;3.20;2.90;;;13.90;58.60;;;;;;938534;149;27448;-76
2023/04/28 03:55:55;;;;;;;2.90;2.60;;;13.90;58.80;;;;;;931890;150;27277;-76
2023/04/28 03:58:21;;;;;;;4.87;2.93;;;13.90;58.90;;;;;;942876;148;27362;-76
2023/04/28 04:00:48;;;;;;;4.00;3.17;;;13.90;58.90;;;;;;945499;147;27328;-76
2023/04/28 04:03:14;;;;;;;5.20;3.17;;;13.90;59.00;;;;;;946676;147;27311;-76
2023/04/28 04:05:41;;;;;;;3.47;3.03;;;13.90;59.00;;;;;;953345;147;27413;-76
2023/04/28 04:08:08;;;;;;;4.03;3.17;;;13.90;59.00;;;;;;948020;147;27912;-76
2023/04/28 04:10:34;;;;;;;5.00;3.23;;;13.80;59.90;;;;;;945769;151;27816;-75
2023/04/28 04:13:01;;;;;;;5.13;3.50;;;13.80;59.20;;;;;;945906;150;27397;-76
2023/04/28 04:15:27;;;;;;;5.33;3.57;;;13.80;59.40;;;;;;959161;147;27423;-76
2023/04/28 04:17:54;;;;;;;5.53;3.23;;;13.80;59.50;;;;;;958493;146;27333;-76
2023/04/28 04:20:21;;;;;;;4.37;3.33;;;13.80;59.50;;;;;;959130;146;27370;-76
2023/04/28 04:22:47;;;;;;;5.67;3.47;;;13.80;59.60;;;;;;951182;150;27442;-76
2023/04/28 04:25:14;;;;;;;5.47;3.20;;;13.90;59.60;;;;;;952140;147;27435;-75
2023/04/28 04:27:40;;;;;;;8.47;3.50;;;13.80;59.80;;;;;;952789;147;27911;-76
2023/04/28 04:30:07;;;;;;;4.67;3.93;;;13.90;59.70;;;;;;953573;146;27795;-76
2023/04/28 04:32:34;;;;;;;4.03;3.67;;;13.90;59.10;;;;;;947228;148;27372;-76
2023/04/28 04:35:00;;;;;;;5.00;3.67;;;13.90;59.80;;;;;;946364;148;27328;-75
2023/04/28 04:37:27;;;;;;;4.17;3.87;;;13.90;59.80;;;;;;947706;148;27329;-75
2023/04/28 04:39:53;;;;;;;4.77;3.93;;;13.90;59.90;;;;;;947360;148;27328;-75
2023/04/28 04:42:20;;;;;;;4.33;3.93;;;13.80;60.10;;;;;;952999;146;27347;-75
2023/04/28 04:44:47;;;;;;;4.50;3.87;;;13.80;60.90;;;;;;936502;149;27423;-75
2023/04/28 04:47:13;;;;;;;4.33;3.80;;;13.80;60.30;;;;;;953460;146;27285;-76
2023/04/28 04:49:40;;;;;;;5.00;4.00;;;13.80;60.40;;;;;;953630;146;27375;-75
2023/04/28 04:52:07;;;;;;;6.33;4.23;;;13.80;60.50;;;;;;953696;146;27325;-78
2023/04/28 04:54:33;;;;;;;5.60;4.10;;;13.80;60.50;;;;;;950412;147;27723;-78
2023/04/28 04:57:00;;;;;;;6.23;3.63;;;13.80;60.70;;;;;;955173;146;27366;-76
2023/04/28 04:59:27;;;;;;;4.27;3.77;;;13.80;60.80;;;;;;944218;148;27279;-75
2023/04/28 05:01:53;;;;;;;4.57;3.77;;;13.80;61.00;;;;;;947181;148;27396;-75
2023/04/28 05:04:19;;;;;;;4.73;4.03;;;13.80;61.10;;;;;;940795;148;27473;-75
2023/04/28 05:06:46;;;;;;;5.10;3.57;;;13.80;61.20;;;;;;921582;152;27398;-75
2023/04/28 05:09:12;;;;;;;4.43;3.53;;;13.80;61.40;;;;;;910781;156;27335;-75
2023/04/28 05:11:39;;;;;;;4.40;4.00;;;13.80;61.40;;;;;;914441;156;27462;-75
2023/04/28 05:14:06;;;;;;;5.60;4.30;;;13.80;61.40;;;;;;914685;156;27400;-75
2023/04/28 05:16:32;;;;;;;5.77;4.03;;;13.80;61.50;;;;;;910227;156;27397;-75
2023/04/28 05:18:59;;;;;;;5.20;3.57;;;13.90;61.60;;;;;;913815;156;27283;-75
2023/04/28 05:21:25;;;;;;;4.00;3.60;;;13.90;61.60;;;;;;911724;156;27438;-78
2023/04/28 05:23:52;;;;;;;4.27;3.83;;;13.90;61.70;;;;;;912702;156;27399;-78
2023/04/28 05:26:19;;;;;;;3.70;3.40;;;13.90;61.90;;;;;;913140;154;27400;-78
2023/04/28 05:28:45;;;;;;;5.13;3.97;;;13.90;62.00;;;;;;914116;155;27390;-78
2023/04/28 05:31:12;;;;;;;4.40;4.00;;;14.00;62.10;;;;;;914105;154;27725;-76
2023/04/28 05:33:38;;;;;;;4.13;3.53;;;14.00;62.20;;;;;;914979;156;27335;-76
2023/04/28 05:36:05;;;;;;;5.30;4.27;;;14.00;62.20;;;;;;914706;156;27384;-75
2023/04/28 05:38:32;;;;;;;4.03;3.53;;;14.10;62.50;;;;;;911609;156;27388;-75
2023/04/28 05:40:58;;;;;;;4.67;3.80;;;14.10;62.70;;;;;;913420;156;27351;-76
2023/04/28 05:43:25;;;;;;;4.87;4.37;;;14.10;62.50;;;;;;912648;154;27406;-76
2023/04/28 05:45:51;;;;;;;4.87;3.90;;;14.10;62.70;;;;;;913285;156;27404;-76
2023/04/28 05:48:18;;;;;;;3.83;3.53;;;14.10;62.90;;;;;;916095;156;27407;-76
2023/04/28 05:50:44;;;;;;;5.83;4.17;;;14.10;63.30;;;;;;914973;156;27356;-76
2023/04/28 05:53:11;;;;;;;4.37;3.97;;;14.10;63.50;;;;;;915013;155;27429;-76
2023/04/28 05:55:38;;;;;;;5.40;4.43;;;14.00;63.80;;;;;;921554;154;27284;-76
2023/04/28 05:58:04;;;;;;;5.53;4.50;;;14.00;64.00;;;;;;914777;154;27479;-76
2023/04/28 06:00:31;;;;;;;4.73;4.27;;;14.00;64.10;;;;;;913065;154;27579;-76
2023/04/28 06:02:57;;;;;;;4.70;3.90;;;13.90;64.50;;;;;;911690;153;27376;-76
2023/04/28 06:05:24;;;;;;;5.17;4.10;;;13.90;64.90;;;;;;929369;149;27327;-76
2023/04/28 06:07:51;;;;;;;6.10;4.60;;;13.90;65.20;;;;;;937506;148;27350;-76
2023/04/28 06:10:17;;;;;;;4.63;4.23;;;13.90;65.50;;;;;;929557;149;27502;-76
2023/04/28 06:12:44;;;;;;;4.73;4.33;;;13.90;66.50;;;;;;929995;149;27582;-76
2023/04/28 06:15:10;;;;;;;4.60;4.17;;;13.90;65.70;;;;;;937143;148;27721;-76
2023/04/28 06:17:37;;;;;;;5.63;4.77;;;13.90;65.70;;;;;;937401;148;27435;-76
2023/04/28 06:20:04;;;;;;;5.93;4.97;;;13.90;65.80;;;;;;929072;149;27468;-76
2023/04/28 06:22:30;;;;;;;5.43;4.73;;;13.90;66.00;;;;;;929119;149;27428;-76
2023/04/28 06:24:57;;;;;;;5.20;4.37;;;13.90;66.00;;;;;;935571;148;27411;-76
2023/04/28 06:27:23;;;;;;;4.87;4.17;;;13.90;66.10;;;;;;925013;150;27812;-76
2023/04/28 06:29:50;;;;;;;5.00;4.17;;;13.90;66.10;;;;;;919869;150;27396;-76
2023/04/28 06:32:16;;;;;;;4.90;4.10;;;13.90;67.20;;;;;;918030;152;27480;-76
2023/04/28 06:34:43;;;;;;;5.17;4.67;;;13.90;66.70;;;;;;936891;148;27322;-76
2023/04/28 06:37:10;;;;;;;4.77;4.33;;;13.90;66.90;;;;;;936745;148;27297;-76
2023/04/28 06:39:37;;;;;;;5.17;4.20;;;13.90;66.70;;;;;;939215;149;27358;-76
2023/04/28 06:42:03;;;;;;;5.63;5.07;;;13.90;67.00;;;;;;931838;149;27358;-76
2023/04/28 06:44:29;;;;;;;4.83;4.43;;;13.90;67.30;;;;;;940315;149;27293;-76
2023/04/28 06:46:56;;;;;;;4.93;4.43;;;13.90;67.50;;;;;;940314;149;27308;-76
2023/04/28 06:49:23;;;;;;;5.10;4.60;;;13.90;67.80;;;;;;936991;148;27375;-76
2023/04/28 06:51:49;;;;;;;5.27;4.77;;;13.90;68.00;;;;;;925748;150;27735;-77
2023/04/28 06:54:16;;;;;;;5.00;4.40;;;13.90;67.90;;;;;;936334;148;27311;-76
2023/04/28 06:56:42;;;;;;;5.50;5.10;;;13.90;68.10;;;;;;937467;148;27274;-76
2023/04/28 06:59:09;;;;;;;7.37;5.00;;;14.00;68.30;;;;;;937441;148;27294;-76
2023/04/28 07:01:35;;;;;;;7.27;5.10;;;14.00;68.60;;;;;;929029;149;27364;-76
2023/04/28 07:04:02;;;;;;;5.50;5.00;;;14.00;68.90;;;;;;937012;148;27358;-76
2023/04/28 07:06:30;;;;;;;8.50;5.77;;;14.00;68.90;;;;;;933906;148;27309;-76
2023/04/28 07:08:55;;;;;;;6.07;5.47;;;14.00;68.90;;;;;;923865;151;27334;-77
2023/04/28 07:11:22;;;;;;;7.40;5.13;;;14.10;69.20;;;;;;920202;151;27699;-76
2023/04/28 07:13:50;;;;;;;6.13;5.40;;;14.10;69.40;;;;;;928337;149;27319;-76
2023/04/28 07:16:15;;;;;;;6.37;5.00;;;14.10;69.60;;;;;;926767;150;27288;-76
2023/04/28 07:18:42;;;;;;;5.30;4.80;;;14.10;69.50;;;;;;927927;150;27304;-76
2023/04/28 07:21:08;;;;;;;5.40;4.90;;;14.10;69.70;;;;;;926894;150;27342;-76
2023/04/28 07:23:37;;;;;;;6.63;5.10;;;14.20;70.00;;;;;;927338;150;27354;-76
2023/04/28 07:26:01;;;;;;;5.50;4.70;;;14.20;70.30;;;;;;926024;150;27292;-77
2023/04/28 07:28:28;;;;;;;6.10;4.97;;;14.20;70.50;;;;;;926545;150;27284;-77
2023/04/28 07:30:55;;;;;;;6.23;4.63;;;14.30;70.50;;;;;;927240;150;27314;-76
2023/04/28 07:33:21;;;;;;;6.37;5.50;;;14.30;70.30;;;;;;928151;150;27351;-77
2023/04/28 07:35:48;;;;;;;9.17;5.20;;;14.40;70.50;;;;;;926407;150;27338;-76
2023/04/28 07:38:14;;;;;;;6.03;4.97;;;14.40;70.50;;;;;;927392;150;27347;-76
2023/04/28 07:40:43;;;;;;;5.47;4.97;;;14.50;70.70;;;;;;926418;150;27308;-76
2023/04/28 07:43:10;;;;;;;7.03;4.83;;;14.50;70.50;;;;;;926713;150;27361;-77
2023/04/28 07:45:39;;;;;;;5.67;5.10;;;14.60;70.70;;;;;;926773;150;27417;-76
2023/04/28 07:48:06;;;;;;;7.07;5.13;;;14.60;70.80;;;;;;926707;150;27327;-76
2023/04/28 07:50:32;;;;;;;6.17;4.95;;;14.70;71.30;;;;;;927140;150;27354;-76
2023/04/28 07:52:59;;;;;;;5.30;4.80;;;14.80;71.90;;;;;;926516;150;27471;-76
2023/04/28 07:55:25;;;;;;;6.12;5.08;;;14.90;72.30;;;;;;926906;150;27311;-76
2023/04/28 07:57:52;;;;;;;6.80;4.95;;;15.00;72.30;;;;;;926938;150;27360;-76
2023/04/28 08:00:19;;;;;;;5.25;4.75;;;15.10;71.80;;;;;;926431;150;27304;-76
2023/04/28 08:02:45;;;;;;;6.30;5.20;;;15.20;71.70;;;;;;927661;150;27379;-76
2023/04/28 08:05:12;;;;;;;4.42;4.03;;;15.30;71.30;;;;;;926893;150;27330;-76
2023/04/28 08:07:38;;;;;;;6.37;4.00;;;15.40;71.20;;;;;;956960;147;27299;-76
2023/04/28 08:10:05;;;;;;;4.40;4.05;;;15.40;71.20;;;;;;945035;149;27320;-76
2023/04/28 08:12:32;;;;;;;5.83;5.10;;;15.50;71.00;;;;;;927577;150;27416;-76
2023/04/28 08:14:58;;;;;;;4.70;4.30;;;15.50;70.90;;;;;;930247;150;27350;-75
2023/04/28 08:17:25;;;;;;;4.97;4.47;;;15.50;71.10;;;;;;934978;150;27306;-76
2023/04/28 08:19:51;;;;;;;5.97;4.87;;;15.60;71.00;;;;;;931261;150;27340;-76
2023/04/28 08:22:18;;;;;;;5.80;4.80;;;15.60;71.00;;;;;;926868;150;27344;-76
2023/04/28 08:24:45;;;;;;;5.37;4.87;;;15.60;71.00;;;;;;930760;149;27347;-76
2023/04/28 08:27:11;;;;;;;6.25;4.78;;;15.70;71.00;;;;;;940926;149;27354;-76
2023/04/28 08:29:39;;;;;;;4.95;4.55;;;15.70;71.00;;;;;;944308;148;27308;-76
2023/04/28 08:32:05;;;;;;;5.47;4.50;;;15.70;71.10;;;;;;944199;147;27326;-76
2023/04/28 08:34:31;;;;;;;5.10;4.70;;;15.80;71.00;;;;;;943675;148;27467;-76
2023/04/28 08:36:57;;;;;;;4.62;4.12;;;15.80;71.00;;;;;;921506;152;27356;-76
2023/04/28 08:39:25;;;;;;;4.65;4.20;;;15.80;71.20;;;;;;924357;150;27350;-76
2023/04/28 08:41:51;;;;;;;7.33;4.35;;;15.80;71.40;;;;;;943499;148;27329;-75
2023/04/28 08:44:17;;;;;;;6.92;5.28;;;15.90;71.70;;;;;;940966;149;27442;-76
2023/04/28 08:46:44;;;;;;;7.75;4.35;;;15.90;71.70;;;;;;944371;148;27361;-76
2023/04/28 08:49:16;;;;;;;6.55;4.45;;;15.90;71.70;;;;;;927816;150;27347;-76
2023/04/28 08:51:46;;;;;;;6.35;4.47;;;16.00;71.80;;;;;;937849;150;27346;-76
2023/04/28 08:54:12;;;;;;;5.03;4.53;;;16.00;71.90;;;;;;937183;150;27768;-76
2023/04/28 08:56:39;;;;;;;6.25;4.42;;;16.00;72.00;;;;;;927265;150;27363;-76
2023/04/28 08:59:05;;;;;;;4.20;3.90;;;16.10;71.80;;;;;;938800;150;27387;-75
2023/04/28 09:01:32;;;;;;;4.75;4.30;;;16.10;72.00;;;;;;943159;148;27302;-76
2023/04/28 09:04:01;;;;;;;4.35;3.85;;;16.10;72.00;;;;;;941837;149;27386;-76
2023/04/28 09:06:34;;;;;;;5.25;4.70;;;16.20;72.10;;;;;;943969;148;27497;-76
2023/04/28 09:09:22;;;;;;;6.05;4.75;;;16.20;72.10;;;;;;920299;151;27409;-76
2023/04/28 09:11:51;;;;;;;5.15;4.50;;;16.20;72.20;;;;;;924060;150;27364;-76
2023/04/28 09:14:18;;;;;;;5.50;5.00;;;16.20;72.20;;;;;;924606;150;27490;-76
2023/04/28 09:16:44;;;;;;;6.58;4.83;;;16.20;72.30;;;;;;944499;147;27343;-76
2023/04/28 09:19:11;;;;;;;4.17;3.87;;;16.30;72.60;;;;;;928157;150;27692;-76
2023/04/28 09:21:49;;;;;;;4.87;4.35;;;16.30;72.60;;;;;;927588;150;27347;-76
2023/04/28 09:24:28;;;;;;;5.05;4.55;;;16.40;72.70;;;;;;943210;148;27302;-76
2023/04/28 09:26:54;;;;;;;5.05;4.58;;;16.40;72.50;;;;;;928058;150;27374;-76
2023/04/28 09:29:21;;;;;;;4.58;4.17;;;16.40;72.40;;;;;;938505;150;27713;-76
2023/04/28 09:31:48;;;;;;;5.90;4.80;;;16.50;72.80;;;;;;942987;148;27395;-76
2023/04/28 09:34:14;;;;;;;4.90;4.50;;;16.50;72.80;;;;;;943702;148;27341;-76
2023/04/28 09:36:41;;;;;;;5.37;4.97;;;16.60;73.10;;;;;;944695;148;27353;-76
2023/04/28 09:39:07;;;;;;;4.92;4.47;;;16.60;73.00;;;;;;940492;150;27396;-76
2023/04/28 09:41:39;;;;;;;6.55;4.78;;;16.60;73.40;;;;;;939184;150;27326;-76
2023/04/28 09:44:15;;;;;;;5.58;5.08;;;16.70;74.60;;;;;;942925;151;27314;-76
2023/04/28 09:46:42;;;;;;;4.72;4.33;;;16.70;73.90;;;;;;944050;150;27421;-76
2023/04/28 09:49:08;;;;;;;5.42;4.92;;;16.80;73.60;;;;;;945305;148;27328;-76
2023/04/28 09:51:35;;;;;;;4.75;4.25;;;16.90;73.80;;;;;;944390;151;27384;-76
2023/04/28 09:54:02;;;;;;;5.40;4.92;;;17.00;73.90;;;;;;936358;152;27302;-76
2023/04/28 09:56:31;;;;;;;6.28;4.72;;;17.10;74.10;;;;;;920487;151;27357;-76
2023/04/28 09:58:55;;;;;;;5.10;4.65;;;17.20;74.30;;;;;;929258;152;27356;-76
2023/04/28 10:01:21;;;;;;;5.58;5.03;;;17.40;74.20;;;;;;932607;153;27301;-75
2023/04/28 10:03:48;;;;;;;5.08;4.65;;;17.50;74.40;;;;;;933021;151;28005;-76
2023/04/28 10:06:14;;;;;;;5.12;4.65;;;17.60;74.40;;;;;;933549;151;27368;-76
2023/04/28 10:08:41;;;;;;;5.65;5.15;;;17.80;74.10;;;;;;946303;148;27414;-76
2023/04/28 10:11:08;;;;;;;5.55;4.60;;;18.00;74.00;;;;;;950345;148;27293;-76
2023/04/28 10:13:34;;;;;;;4.92;4.50;;;18.10;73.70;;;;;;949159;148;27321;-76
2023/04/28 10:16:01;;;;;;;4.87;4.47;;;18.20;73.20;;;;;;955419;146;27316;-76
2023/04/28 10:18:27;;;;;;;4.90;4.50;;;18.30;73.10;;;;;;931416;149;27973;-76
2023/04/28 10:21:01;;;;;;;5.47;4.75;;;18.40;73.10;;;;;;931054;154;27379;-76
2023/04/28 10:23:47;;;;;;;5.25;4.67;;;18.50;72.90;;;;;;931453;153;27691;-76
2023/04/28 10:26:14;;;;;;;4.87;4.42;;;18.50;72.50;;;;;;939730;148;27281;-76
2023/04/28 10:28:47;;;;;;;5.58;5.08;;;18.60;72.50;;;;;;950723;147;27441;-76
2023/04/28 10:31:13;;;;;;;6.05;5.30;;;18.70;72.70;;;;;;948984;148;27473;-76
2023/04/28 10:33:39;;;;;;;5.58;5.08;;;18.80;72.80;;;;;;948370;148;27285;-76
2023/04/28 10:36:06;;;;;;;5.70;5.20;;;18.80;72.30;;;;;;949875;148;27394;-76
2023/04/28 10:38:33;;;;;;;6.55;5.95;;;18.90;72.30;;;;;;949669;148;27697;-76
2023/04/28 10:41:02;;;;;;;6.00;5.50;;;19.00;72.30;;;;;;949838;148;27368;-76
2023/04/28 10:43:31;;;;;;;6.15;5.60;;;19.00;72.40;;;;;;949446;148;27321;-76
2023/04/28 10:46:00;;;;;;;5.75;5.25;;;19.10;72.30;;;;;;956595;147;27421;-76
2023/04/28 10:48:33;;;;;;;6.37;5.78;;;19.20;72.40;;;;;;952715;146;27359;-76
2023/04/28 10:51:06;;;;;;;6.78;6.03;;;19.30;72.70;;;;;;948406;148;27313;-76
2023/04/28 10:53:44;;;;;;;6.40;5.80;;;19.40;72.80;;;;;;947540;148;27333;-76
2023/04/28 10:56:20;;;;;;;6.80;6.20;;;19.50;72.80;;;;;;949451;146;27370;-76
2023/04/28 10:58:52;;;;;;;5.55;5.10;;;19.70;72.70;;;;;;952025;146;27319;-76
2023/04/28 11:01:18;;;;;;;6.03;5.42;;;19.90;72.60;;;;;;952474;147;27289;-76
2023/04/28 11:03:52;;;;;;;7.60;6.00;;;20.00;72.20;;;;;;947098;148;27363;-76
2023/04/28 11:06:24;;;;;;;6.37;5.78;;;20.20;72.10;;;;;;947215;148;27504;-76
2023/04/28 11:08:46;;;;;;;7.15;6.45;;;20.30;71.70;;;;;;927009;148;27508;-76
2023/04/28 11:11:13;;;;;;;7.12;6.42;;;20.40;71.60;;;;;;926829;153;27398;-76
2023/04/28 11:13:40;;;;;;;6.22;5.70;;;20.60;71.30;;;;;;927952;152;27350;-75
2023/04/28 11:16:06;;;;;;;7.00;6.30;;;20.70;71.80;;;;;;930396;153;27371;-76
2023/04/28 11:18:51;;;;;;;6.15;5.65;;;20.80;71.40;;;;;;940237;151;27322;-76
2023/04/28 11:21:17;;;;;;;6.33;5.72;;;21.00;71.40;;;;;;935864;151;27304;-76
2023/04/28 11:23:44;;;;;;;6.83;5.95;;;21.10;71.30;;;;;;943936;148;27372;-76
2023/04/28 11:26:11;;;;;;;6.70;5.85;;;21.30;71.60;;;;;;940967;149;27345;-76
2023/04/28 11:28:37;;;;;;;6.78;6.17;;;21.60;71.40;;;;;;928395;151;28030;-76
2023/04/28 11:31:10;;;;;;;6.08;5.47;;;21.80;71.00;;;;;;927348;153;27333;-76
2023/04/28 11:33:37;;;;;;;6.30;5.72;;;22.00;70.30;;;;;;941974;152;27338;-76
2023/04/28 11:36:03;;;;;;;8.33;6.28;;;22.20;69.70;;;;;;930396;151;27951;-76
2023/04/28 11:38:29;;;;;;;7.03;6.42;;;22.50;69.20;;;;;;925575;151;27773;-76
2023/04/28 11:40:56;;;;;;;6.22;5.58;;;22.60;68.80;;;;;;925726;154;27363;-76
2023/04/28 11:43:29;;;;;;;5.97;5.37;;;22.80;68.40;;;;;;926139;153;27471;-76
2023/04/28 11:45:56;;;;;;;6.40;5.80;;;23.00;68.30;;;;;;926985;152;27311;-76
2023/04/28 11:48:22;;;;;;;5.67;5.00;;;23.20;68.00;;;;;;927489;151;27427;-76
2023/04/28 11:50:48;;;;;;;5.53;5.03;;;23.40;67.40;;;;;;927792;153;27315;-76
2023/04/28 11:53:15;;;;;;;5.78;5.22;;;23.50;66.70;;;;;;944558;148;27404;-76
2023/04/28 11:55:42;;;;;;;5.10;4.70;;;23.70;66.40;;;;;;931093;154;27305;-76
2023/04/28 11:58:24;;;;;;;5.50;5.10;;;23.90;66.30;;;;;;930502;154;27355;-76
2023/04/28 12:01:11;;;;;;;5.28;4.87;;;24.00;65.90;;;;;;931106;154;27375;-76
2023/04/28 12:03:47;;;;;;;5.90;5.40;;;24.10;65.30;;;;;;943501;152;27349;-76
2023/04/28 12:06:19;;;;;;;5.47;5.05;;;24.30;64.20;;;;;;943260;149;27449;-76
2023/04/28 12:08:43;;;;;;;4.53;4.22;;;24.30;63.90;;;;;;918309;151;27454;-76
2023/04/28 12:11:10;;;;;;;4.78;4.37;;;24.30;63.60;;;;;;925505;152;27392;-76
2023/04/28 12:13:37;;;;;;;4.62;4.28;;;24.20;63.20;;;;;;936747;151;27378;-76
2023/04/28 12:16:05;;;;;;;5.08;4.35;;;24.30;63.50;;;;;;941742;151;27285;-76
2023/04/28 12:18:32;;;;;;;5.05;4.65;;;24.30;63.50;;;;;;910211;152;27302;-76
2023/04/28 12:20:59;;;;;;;4.90;4.53;;;24.30;63.50;;;;;;923513;154;27375;-76
2023/04/28 12:23:28;;;;;;;5.60;5.15;;;24.30;63.20;;;;;;935180;149;27354;-76
2023/04/28 12:25:55;;;;;;;5.15;4.75;;;24.40;63.40;;;;;;935579;152;27267;-76
2023/04/28 12:28:21;;;;;;;5.08;4.42;;;24.50;63.10;;;;;;928359;153;27694;-76
2023/04/28 12:30:48;;;;;;;4.72;4.35;;;24.50;62.90;;;;;;937431;150;27437;-76
2023/04/28 12:33:26;;;;;;;4.15;3.85;;;24.60;62.90;;;;;;937352;149;27755;-76
2023/04/28 12:35:55;;;;;;;4.22;3.92;;;24.60;62.80;;;;;;936282;152;27288;-76
2023/04/28 12:38:19;;;;;;;4.90;4.37;;;24.70;62.80;;;;;;929097;153;27408;-76
2023/04/28 12:40:46;;;;;;;4.83;4.00;;;24.70;62.60;;;;;;928464;152;27380;-76
2023/04/28 12:43:12;;;;;;;4.17;3.62;;;24.80;62.70;;;;;;929289;151;27450;-76
2023/04/28 12:45:40;;;;;;;4.30;3.92;;;24.80;62.50;;;;;;936741;152;27314;-76
2023/04/28 12:48:06;;;;;;;4.15;3.83;;;24.90;61.80;;;;;;937182;151;27264;-76